createdAt,value
2018-08-19T00:01:45.684Z,96.50
2018-08-19T00:04:13.980Z,96.60
2018-08-19T00:06:42.385Z,96.40
2018-08-19T00:09:12.652Z,96.30
2018-08-19T00:11:41.456Z,96.50
2018-08-19T00:14:23.955Z,96.40
2018-08-19T00:16:51.879Z,96.10
2018-08-19T00:19:19.551Z,96.10
2018-08-19T00:21:47.310Z,96.20
2018-08-19T00:24:14.922Z,96.00
2018-08-19T00:26:42.562Z,96.20
2018-08-19T00:29:10.438Z,96.30
2018-08-19T00:31:38.219Z,96.30
2018-08-19T00:34:06.058Z,96.20
2018-08-19T00:36:34.814Z,96.00
2018-08-19T00:39:02.894Z,96.00
2018-08-19T00:41:30.693Z,95.80
2018-08-19T00:43:58.480Z,96.70
2018-08-19T00:46:28.058Z,96.00
2018-08-19T00:48:56.083Z,95.90
2018-08-19T00:51:23.751Z,96.10
2018-08-19T00:53:51.502Z,96.10
2018-08-19T00:56:19.142Z,96.30
2018-08-19T00:58:46.811Z,96.00
2018-08-19T01:01:28.903Z,95.70
2018-08-19T01:03:57.206Z,95.10
2018-08-19T01:06:24.938Z,95.20
2018-08-19T01:08:52.650Z,95.00
2018-08-19T01:11:26.424Z,95.10
2018-08-19T01:13:54.102Z,95.40
2018-08-19T01:16:22.115Z,95.60
2018-08-19T01:18:54.348Z,95.60
2018-08-19T01:21:21.998Z,95.40
2018-08-19T01:23:49.631Z,95.50
2018-08-19T01:26:17.311Z,95.50
2018-08-19T01:28:44.998Z,95.20
2018-08-19T01:31:12.721Z,95.40
2018-08-19T01:33:40.392Z,95.40
2018-08-19T01:36:08.079Z,95.50
2018-08-19T01:38:35.695Z,95.80
2018-08-19T01:41:03.367Z,96.10
2018-08-19T01:43:30.955Z,96.00
2018-08-19T01:45:58.886Z,95.60
2018-08-19T01:48:26.975Z,95.60
2018-08-19T01:50:54.619Z,95.30
2018-08-19T01:53:22.203Z,95.30
2018-08-19T01:55:49.843Z,95.60
2018-08-19T01:58:17.496Z,95.70
2018-08-19T02:00:45.134Z,95.70
2018-08-19T02:03:12.847Z,95.90
2018-08-19T02:05:40.547Z,95.90
2018-08-19T02:08:08.211Z,96.00
2018-08-19T02:10:35.910Z,96.00
2018-08-19T02:13:03.687Z,95.90
2018-08-19T02:15:32.073Z,95.90
2018-08-19T02:18:04.683Z,95.60
2018-08-19T02:20:34.207Z,95.70
2018-08-19T02:23:02.917Z,95.40
2018-08-19T02:25:39.331Z,95.80
2018-08-19T02:28:08.027Z,95.70
2018-08-19T02:30:40.397Z,95.60
2018-08-19T02:33:08.375Z,95.50
2018-08-19T02:35:36.020Z,95.10
2018-08-19T02:38:03.671Z,95.30
2018-08-19T02:40:32.375Z,95.20
2018-08-19T02:43:00.299Z,95.30
2018-08-19T02:45:28.067Z,95.20
2018-08-19T02:47:55.753Z,95.10
2018-08-19T02:50:23.494Z,94.70
2018-08-19T02:52:51.166Z,94.50
2018-08-19T02:55:18.791Z,94.60
2018-08-19T02:57:46.430Z,94.60
2018-08-19T03:00:14.190Z,95.00
2018-08-19T03:02:42.391Z,95.20
2018-08-19T03:05:11.344Z,94.90
2018-08-19T03:07:39.047Z,95.00
2018-08-19T03:10:08.778Z,95.20
2018-08-19T03:12:36.546Z,94.80
2018-08-19T03:15:05.592Z,94.50
2018-08-19T03:17:33.275Z,93.70
2018-08-19T03:20:01.143Z,93.50
2018-08-19T03:22:29.916Z,93.80
2018-08-19T03:25:00.228Z,93.90
2018-08-19T03:27:27.889Z,94.30
2018-08-19T03:29:57.664Z,93.90
2018-08-19T03:32:25.524Z,94.10
2018-08-19T03:35:18.922Z,93.80
2018-08-19T03:37:47.964Z,94.20
2018-08-19T03:40:15.595Z,94.10
2018-08-19T03:42:43.206Z,94.40
2018-08-19T03:45:17.190Z,93.70
2018-08-19T03:47:45.002Z,93.90
2018-08-19T03:50:18.214Z,94.00
2018-08-19T03:52:45.834Z,93.80
2018-08-19T03:55:34.166Z,94.10
2018-08-19T03:58:04.790Z,94.30
2018-08-19T04:00:33.723Z,93.90
2018-08-19T04:03:04.622Z,93.90
2018-08-19T04:05:42.482Z,93.80
2018-08-19T04:08:11.365Z,93.50
2018-08-19T04:10:40.507Z,94.00
2018-08-19T04:13:24.039Z,94.00
2018-08-19T04:15:51.850Z,93.80
2018-08-19T04:18:22.435Z,93.80
2018-08-19T04:20:50.134Z,93.70
2018-08-19T04:23:17.780Z,93.80
2018-08-19T04:25:45.398Z,94.20
2018-08-19T04:28:17.179Z,94.40
2018-08-19T04:30:44.809Z,94.40
2018-08-19T04:33:12.513Z,94.50
2018-08-19T04:35:40.131Z,94.70
2018-08-19T04:38:07.788Z,95.40
2018-08-19T04:40:35.394Z,94.10
2018-08-19T04:43:03.099Z,93.80
2018-08-19T04:45:30.791Z,93.60
2018-08-19T04:47:58.421Z,93.40
2018-08-19T04:50:26.090Z,93.20
2018-08-19T04:52:53.709Z,92.80
2018-08-19T04:55:21.428Z,92.70
2018-08-19T04:57:49.087Z,92.70
2018-08-19T05:00:16.726Z,92.90
2018-08-19T05:02:44.361Z,93.20
2018-08-19T05:05:12.028Z,93.20
2018-08-19T05:07:39.696Z,93.30
2018-08-19T05:10:07.402Z,92.90
2018-08-19T05:12:35.034Z,92.90
2018-08-19T05:15:02.750Z,93.10
2018-08-19T05:17:30.410Z,93.20
2018-08-19T05:20:13.005Z,92.60
2018-08-19T05:22:40.746Z,92.50
2018-08-19T05:25:08.434Z,92.30
2018-08-19T05:27:36.059Z,92.20
2018-08-19T05:30:04.679Z,92.30
2018-08-19T05:32:32.311Z,91.70
2018-08-19T05:34:59.971Z,90.50
2018-08-19T05:37:27.619Z,89.10
2018-08-19T05:39:59.163Z,88.60
2018-08-19T05:42:26.925Z,87.90
2018-08-19T05:44:54.641Z,86.10
2018-08-19T05:47:22.351Z,82.50
2018-08-19T05:49:50.372Z,75.50
2018-08-19T05:52:21.773Z,68.90
2018-08-19T05:55:06.858Z,66.70
2018-08-19T05:57:34.719Z,62.90
2018-08-19T06:00:07.950Z,61.90
2018-08-19T06:02:41.141Z,61.30
2018-08-19T06:05:08.897Z,57.10
2018-08-19T06:07:36.692Z,55.80
2018-08-19T06:10:04.519Z,51.50
2018-08-19T06:12:32.167Z,48.00
2018-08-19T06:15:00.738Z,47.10
2018-08-19T06:17:28.492Z,43.70
2018-08-19T06:19:56.207Z,41.90
2018-08-19T06:22:30.331Z,38.10
2018-08-19T06:24:58.058Z,36.50
2018-08-19T06:27:30.547Z,36.50
2018-08-19T06:29:58.206Z,34.70
2018-08-19T06:32:30.521Z,35.30
2018-08-19T06:34:58.300Z,35.90
2018-08-19T06:37:25.814Z,35.30
2018-08-19T06:39:53.454Z,34.10
2018-08-19T06:42:21.758Z,32.80
2018-08-19T06:44:49.387Z,32.50
2018-08-19T06:47:17.006Z,31.90
2018-08-19T06:49:50.402Z,30.00
2018-08-19T06:52:18.164Z,29.80
2018-08-19T06:54:45.822Z,30.00
2018-08-19T06:57:13.505Z,29.90
2018-08-19T06:59:41.174Z,29.40
2018-08-19T07:02:08.950Z,29.40
2018-08-19T07:04:40.789Z,28.60
2018-08-19T07:07:10.425Z,30.70
2018-08-19T07:09:38.166Z,30.40
2018-08-19T07:12:18.266Z,29.50
2018-08-19T07:14:46.373Z,28.40
2018-08-19T07:17:14.493Z,27.90
2018-08-19T07:19:42.229Z,27.80
2018-08-19T07:22:13.347Z,27.20
2018-08-19T07:24:41.042Z,27.30
2018-08-19T07:27:09.521Z,32.50
2018-08-19T07:29:37.238Z,32.50
2018-08-19T07:32:05.366Z,30.70
2018-08-19T07:34:33.018Z,30.70
2018-08-19T07:37:00.972Z,30.00
2018-08-19T07:39:28.528Z,27.00
2018-08-19T07:41:56.241Z,27.60
2018-08-19T07:44:23.986Z,27.20
2018-08-19T07:46:51.614Z,28.80
2018-08-19T07:49:19.432Z,29.50
2018-08-19T07:51:47.052Z,28.80
2018-08-19T07:54:14.744Z,30.50
2018-08-19T07:56:42.375Z,39.90
2018-08-19T07:59:11.481Z,29.00
2018-08-19T08:01:39.740Z,33.40
2018-08-19T08:04:07.779Z,45.30
2018-08-19T08:06:35.955Z,32.70
2018-08-19T08:09:05.918Z,36.90
2018-08-19T08:11:33.768Z,35.30
2018-08-19T08:14:01.645Z,42.70
2018-08-19T08:16:29.291Z,43.60
2018-08-19T08:18:57.071Z,38.00
2018-08-19T08:21:28.107Z,37.30
2018-08-19T08:23:55.713Z,48.50
2018-08-19T08:26:23.615Z,48.30
2018-08-19T08:28:56.778Z,44.70
2018-08-19T08:31:24.433Z,44.80
2018-08-19T08:33:52.144Z,47.00
2018-08-19T08:36:19.775Z,45.60
2018-08-19T08:38:47.450Z,39.50
2018-08-19T08:41:15.072Z,40.60
2018-08-19T08:43:42.756Z,52.10
2018-08-19T08:46:10.407Z,45.60
2018-08-19T08:48:38.027Z,42.80
2018-08-19T08:51:05.704Z,40.70
2018-08-19T08:53:37.186Z,45.20
2018-08-19T08:56:05.383Z,41.30
2018-08-19T08:58:33.526Z,44.20
2018-08-19T09:01:01.138Z,40.40
2018-08-19T09:03:28.848Z,43.20
2018-08-19T09:05:56.750Z,41.70
2018-08-19T09:08:24.418Z,39.80
2018-08-19T09:10:52.071Z,38.80
2018-08-19T09:13:19.713Z,39.50
2018-08-19T09:15:47.463Z,43.00
2018-08-19T09:18:15.143Z,42.50
2018-08-19T09:20:42.775Z,42.30
2018-08-19T09:23:10.637Z,40.80
2018-08-19T09:25:38.277Z,40.70
2018-08-19T09:28:05.885Z,40.00
2018-08-19T09:30:36.342Z,42.40
2018-08-19T09:33:04.317Z,41.60
2018-08-19T09:35:33.073Z,48.00
2018-08-19T09:38:08.487Z,42.30
2018-08-19T09:40:36.539Z,41.80
2018-08-19T09:43:04.905Z,40.90
2018-08-19T09:45:32.666Z,43.00
2018-08-19T09:48:00.971Z,54.40
2018-08-19T09:50:28.486Z,48.90
2018-08-19T09:52:56.106Z,49.00
2018-08-19T09:55:29.271Z,43.30
2018-08-19T09:57:57.111Z,40.60
2018-08-19T10:00:26.834Z,42.80
2018-08-19T10:02:54.466Z,44.60
2018-08-19T10:05:24.450Z,45.30
2018-08-19T10:07:53.785Z,47.50
2018-08-19T10:10:22.266Z,46.00
2018-08-19T10:12:50.031Z,46.60
2018-08-19T10:15:17.662Z,44.30
2018-08-19T10:17:45.355Z,45.70
2018-08-19T10:20:13.112Z,43.70
2018-08-19T10:22:42.018Z,45.20
2018-08-19T10:25:15.231Z,46.10
2018-08-19T10:27:43.780Z,45.80
2018-08-19T10:30:11.452Z,46.40
2018-08-19T10:32:39.150Z,47.30
2018-08-19T10:35:12.534Z,46.70
2018-08-19T10:37:40.311Z,46.70
2018-08-19T10:40:08.047Z,47.00
2018-08-19T10:42:35.722Z,47.90
2018-08-19T10:45:09.315Z,47.80
2018-08-19T10:47:36.924Z,46.90
2018-08-19T10:50:06.047Z,45.90
2018-08-19T10:52:38.438Z,45.90
2018-08-19T10:55:08.658Z,45.70
2018-08-19T10:57:36.358Z,45.20
2018-08-19T11:00:10.395Z,45.50
2018-08-19T11:02:38.095Z,44.90
2018-08-19T11:05:05.754Z,45.50
2018-08-19T11:07:33.443Z,45.60
2018-08-19T11:10:22.446Z,46.10
2018-08-19T11:12:53.382Z,46.70
2018-08-19T11:15:29.182Z,46.80
2018-08-19T11:17:57.575Z,46.30
2018-08-19T11:20:30.911Z,46.70
2018-08-19T11:23:04.679Z,51.00
2018-08-19T11:25:32.351Z,47.10
2018-08-19T11:28:00.296Z,46.90
2018-08-19T11:30:28.156Z,47.20
2018-08-19T11:32:55.942Z,46.20
2018-08-19T11:35:27.142Z,48.50
2018-08-19T11:37:59.739Z,49.10
2018-08-19T11:40:28.155Z,48.10
2018-08-19T11:42:56.245Z,47.30
2018-08-19T11:45:23.949Z,46.40
2018-08-19T11:47:56.454Z,49.40
2018-08-19T11:50:24.089Z,47.10
2018-08-19T11:52:56.364Z,47.10
2018-08-19T11:55:24.008Z,46.60
2018-08-19T11:57:51.620Z,47.60
2018-08-19T12:00:20.522Z,51.70
2018-08-19T12:02:48.252Z,49.90
2018-08-19T12:05:16.115Z,50.80
2018-08-19T12:07:46.972Z,50.70
2018-08-19T12:10:14.746Z,52.00
2018-08-19T12:12:47.643Z,49.20
2018-08-19T12:15:16.784Z,48.00
2018-08-19T12:17:44.535Z,50.20
2018-08-19T12:20:12.279Z,52.00
2018-08-19T12:22:42.476Z,52.50
2018-08-19T12:25:10.414Z,52.40
2018-08-19T12:27:38.180Z,52.10
2018-08-19T12:30:14.491Z,50.90
2018-08-19T12:32:45.645Z,50.20
2018-08-19T12:35:15.439Z,48.50
2018-08-19T12:37:43.867Z,51.70
2018-08-19T12:40:13.028Z,51.30
2018-08-19T12:42:47.137Z,47.80
2018-08-19T12:45:15.723Z,49.00
2018-08-19T12:47:47.429Z,49.20
2018-08-19T12:50:16.118Z,49.70
2018-08-19T12:52:45.762Z,48.60
2018-08-19T12:55:16.563Z,49.70
2018-08-19T12:57:48.730Z,48.50
2018-08-19T13:00:25.060Z,48.30
2018-08-19T13:02:54.385Z,47.10
2018-08-19T13:05:25.708Z,47.30
2018-08-19T13:07:54.191Z,46.00
2018-08-19T13:10:22.271Z,46.70
2018-08-19T13:12:57.226Z,46.80
2018-08-19T13:15:27.789Z,48.20
2018-08-19T13:17:55.508Z,46.40
2018-08-19T13:20:23.146Z,49.50
2018-08-19T13:22:56.471Z,47.40
2018-08-19T13:25:24.527Z,52.30
2018-08-19T13:27:52.162Z,50.10
2018-08-19T13:30:20.451Z,46.20
2018-08-19T13:32:48.666Z,49.00
2018-08-19T13:35:16.303Z,48.90
2018-08-19T13:37:43.962Z,47.60
2018-08-19T13:40:12.440Z,48.40
2018-08-19T13:42:40.302Z,48.50
2018-08-19T13:45:13.591Z,46.20
2018-08-19T13:47:42.218Z,47.90
2018-08-19T13:50:09.974Z,47.20
2018-08-19T13:52:38.062Z,49.20
2018-08-19T13:55:08.295Z,48.30
2018-08-19T13:57:35.917Z,47.50
2018-08-19T14:00:05.110Z,47.40
2018-08-19T14:02:32.751Z,46.60
2018-08-19T14:05:00.391Z,46.40
2018-08-19T14:07:28.030Z,46.90
2018-08-19T14:09:55.658Z,47.10
2018-08-19T14:12:23.323Z,47.20
2018-08-19T14:14:50.978Z,47.40
2018-08-19T14:17:18.586Z,47.70
2018-08-19T14:19:46.223Z,48.70
2018-08-19T14:22:13.851Z,47.30
2018-08-19T14:24:41.475Z,48.00
2018-08-19T14:27:09.175Z,47.80
2018-08-19T14:29:37.382Z,50.20
2018-08-19T14:32:05.214Z,49.50
2018-08-19T14:34:32.824Z,47.50
2018-08-19T14:37:00.515Z,45.90
2018-08-19T14:39:28.147Z,46.50
2018-08-19T14:41:55.782Z,46.90
2018-08-19T14:44:23.523Z,47.70
2018-08-19T14:46:51.975Z,47.60
2018-08-19T14:49:19.808Z,46.60
2018-08-19T14:51:55.650Z,47.30
2018-08-19T14:54:23.389Z,48.50
2018-08-19T14:56:51.003Z,48.10
2018-08-19T14:59:18.655Z,47.40
2018-08-19T15:01:46.295Z,47.50
2018-08-19T15:04:15.419Z,46.00
2018-08-19T15:06:44.179Z,46.80
2018-08-19T15:09:24.591Z,46.80
2018-08-19T15:11:52.689Z,46.30
2018-08-19T15:14:21.042Z,46.40
2018-08-19T15:16:53.053Z,45.70
2018-08-19T15:19:20.734Z,46.50
2018-08-19T15:21:50.315Z,46.80
2018-08-19T15:24:17.963Z,47.20
2018-08-19T15:26:45.878Z,46.80
2018-08-19T15:29:21.177Z,46.60
2018-08-19T15:31:49.090Z,47.20
2018-08-19T15:34:17.008Z,46.70
2018-08-19T15:36:44.679Z,47.10
2018-08-19T15:39:12.287Z,46.60
2018-08-19T15:41:40.006Z,47.00
2018-08-19T15:44:07.701Z,47.10
2018-08-19T15:46:35.316Z,46.80
2018-08-19T15:49:06.006Z,46.70
2018-08-19T15:51:33.627Z,46.90
2018-08-19T15:54:01.309Z,46.60
2018-08-19T15:56:29.042Z,46.30
2018-08-19T15:58:56.745Z,46.30
2018-08-19T16:01:31.907Z,46.10
2018-08-19T16:04:05.078Z,46.20
2018-08-19T16:06:33.248Z,46.10
2018-08-19T16:09:00.874Z,46.40
2018-08-19T16:11:28.512Z,46.70
2018-08-19T16:13:56.141Z,46.50
2018-08-19T16:16:24.504Z,46.40
2018-08-19T16:18:53.553Z,46.50
2018-08-19T16:21:21.236Z,45.90
2018-08-19T16:23:48.869Z,45.80
2018-08-19T16:26:16.524Z,46.00
2018-08-19T16:28:44.388Z,46.20
2018-08-19T16:31:12.044Z,45.90
2018-08-19T16:33:39.703Z,46.60
2018-08-19T16:36:07.414Z,47.00
2018-08-19T16:38:35.067Z,46.20
2018-08-19T16:41:02.891Z,47.50
2018-08-19T16:43:31.842Z,48.10
2018-08-19T16:45:59.777Z,47.90
2018-08-19T16:48:27.911Z,48.60
2018-08-19T16:50:55.691Z,49.00
2018-08-19T16:53:23.451Z,47.80
2018-08-19T16:55:51.153Z,46.80
2018-08-19T16:58:18.947Z,47.10
2018-08-19T17:00:46.706Z,47.80
2018-08-19T17:03:26.415Z,47.50
2018-08-19T17:05:54.735Z,47.30
2018-08-19T17:08:22.628Z,47.60
2018-08-19T17:10:50.365Z,47.00
2018-08-19T17:13:18.108Z,48.50
2018-08-19T17:15:45.724Z,47.80
2018-08-19T17:18:13.494Z,47.30
2018-08-19T17:20:41.419Z,48.20
2018-08-19T17:23:09.083Z,48.00
2018-08-19T17:25:36.795Z,47.50
2018-08-19T17:28:36.159Z,48.80
2018-08-19T17:31:03.841Z,48.50
2018-08-19T17:33:31.530Z,49.60
2018-08-19T17:35:59.169Z,48.40
2018-08-19T17:38:31.247Z,50.30
2018-08-19T17:40:59.319Z,49.30
2018-08-19T17:43:31.458Z,50.00
2018-08-19T17:46:04.582Z,49.00
2018-08-19T17:48:32.323Z,48.60
2018-08-19T17:50:59.951Z,50.60
2018-08-19T17:53:27.572Z,49.30
2018-08-19T17:55:55.237Z,50.30
2018-08-19T17:58:24.700Z,50.50
2018-08-19T18:00:52.342Z,50.20
2018-08-19T18:03:20.252Z,50.60
2018-08-19T18:05:47.955Z,50.60
2018-08-19T18:08:15.588Z,51.90
2018-08-19T18:10:47.965Z,53.30
2018-08-19T18:13:15.654Z,53.90
2018-08-19T18:15:43.283Z,53.50
2018-08-19T18:18:11.019Z,54.40
2018-08-19T18:20:39.729Z,54.90
2018-08-19T18:23:12.792Z,55.10
2018-08-19T18:25:41.315Z,54.80
2018-08-19T18:28:15.330Z,55.80
2018-08-19T18:30:42.994Z,55.20
2018-08-19T18:33:10.675Z,54.60
2018-08-19T18:35:38.294Z,54.10
2018-08-19T18:38:26.171Z,54.00
2018-08-19T18:40:53.603Z,54.60
2018-08-19T18:43:21.375Z,54.80
2018-08-19T18:45:49.028Z,60.00
2018-08-19T18:48:17.864Z,59.40
2018-08-19T18:50:45.607Z,58.80
2018-08-19T18:53:13.287Z,57.60
2018-08-19T18:55:40.992Z,59.40
2018-08-19T18:58:08.743Z,64.50
2018-08-19T19:00:40.674Z,70.00
2018-08-19T19:03:08.302Z,66.40
2018-08-19T19:05:41.182Z,67.20
2018-08-19T19:08:23.475Z,67.30
2018-08-19T19:10:57.414Z,68.90
2018-08-19T19:13:25.980Z,67.60
2018-08-19T19:15:53.651Z,67.60
2018-08-19T19:18:21.338Z,69.70
2018-08-19T19:20:58.296Z,75.80
2018-08-19T19:23:30.317Z,74.80
2018-08-19T19:25:58.443Z,73.70
2018-08-19T19:28:26.179Z,79.90
2018-08-19T19:31:06.162Z,80.00
2018-08-19T19:33:34.549Z,81.80
2018-08-19T19:36:07.821Z,79.50
2018-08-19T19:38:48.493Z,79.20
2018-08-19T19:41:20.027Z,78.30
2018-08-19T19:43:47.717Z,82.40
2018-08-19T19:46:15.447Z,82.00
2018-08-19T19:48:43.119Z,85.60
2018-08-19T19:51:10.819Z,83.10
2018-08-19T19:53:38.527Z,85.20
2018-08-19T19:56:11.019Z,85.60
2018-08-19T19:58:38.641Z,85.30
2018-08-19T20:01:06.334Z,81.90
2018-08-19T20:03:38.556Z,84.20
2018-08-19T20:06:06.178Z,81.90
2018-08-19T20:08:33.900Z,81.80
2018-08-19T20:11:01.519Z,83.60
2018-08-19T20:13:29.201Z,82.10
2018-08-19T20:15:56.797Z,82.60
2018-08-19T20:18:24.444Z,82.40
2018-08-19T20:20:52.137Z,82.70
2018-08-19T20:23:24.593Z,82.50
2018-08-19T20:25:53.047Z,82.70
2018-08-19T20:28:20.685Z,83.20
2018-08-19T20:30:48.337Z,82.60
2018-08-19T20:33:25.413Z,83.40
2018-08-19T20:35:54.029Z,84.10
2018-08-19T20:38:21.843Z,84.10
2018-08-19T20:40:49.478Z,84.30
2018-08-19T20:43:20.359Z,83.50
2018-08-19T20:45:48.080Z,84.70
2018-08-19T20:48:17.518Z,85.10
2018-08-19T20:50:45.802Z,85.70
2018-08-19T20:53:13.519Z,86.70
2018-08-19T20:55:41.184Z,86.70
2018-08-19T20:58:09.088Z,86.70
2018-08-19T21:00:36.830Z,88.70
2018-08-19T21:03:04.619Z,88.80
2018-08-19T21:05:32.295Z,89.70
2018-08-19T21:08:09.339Z,89.80
2018-08-19T21:10:38.652Z,90.60
2018-08-19T21:13:07.231Z,90.70
2018-08-19T21:15:37.497Z,91.00
2018-08-19T21:18:06.180Z,91.40
2018-08-19T21:20:34.263Z,91.70
2018-08-19T21:23:02.447Z,92.30
2018-08-19T21:25:30.165Z,91.90
2018-08-19T21:27:57.959Z,91.90
2018-08-19T21:30:25.817Z,91.60
2018-08-19T21:32:54.511Z,91.60
2018-08-19T21:35:22.179Z,91.50
2018-08-19T21:37:50.117Z,91.60
2018-08-19T21:40:25.364Z,91.50
2018-08-19T21:42:55.252Z,91.80
2018-08-19T21:45:23.066Z,92.20
2018-08-19T21:47:50.863Z,92.10
2018-08-19T21:50:18.610Z,92.50
2018-08-19T21:53:03.122Z,92.70
2018-08-19T21:55:48.643Z,92.70
2018-08-19T21:58:16.382Z,92.80
2018-08-19T22:00:47.684Z,92.60
2018-08-19T22:03:21.677Z,92.60
2018-08-19T22:05:50.757Z,91.90
2018-08-19T22:08:18.635Z,92.20
2018-08-19T22:10:47.396Z,92.60
2018-08-19T22:13:15.108Z,92.40
2018-08-19T22:15:43.793Z,92.80
2018-08-19T22:18:14.059Z,92.30
2018-08-19T22:20:52.919Z,92.00
2018-08-19T22:23:22.756Z,92.50
2018-08-19T22:25:50.491Z,92.20
2018-08-19T22:28:18.217Z,91.40
2018-08-19T22:30:45.999Z,92.00
2018-08-19T22:33:13.642Z,92.30
2018-08-19T22:35:41.342Z,92.30
2018-08-19T22:38:13.652Z,92.50
2018-08-19T22:40:41.360Z,91.90
2018-08-19T22:43:09.086Z,92.10
2018-08-19T22:45:37.011Z,91.50
2018-08-19T22:48:04.816Z,91.40
2018-08-19T22:50:32.652Z,91.60
2018-08-19T22:53:00.296Z,91.70
2018-08-19T22:55:28.033Z,91.80
2018-08-19T22:58:00.279Z,92.00
2018-08-19T23:00:28.217Z,92.20
2018-08-19T23:02:56.047Z,91.10
2018-08-19T23:05:23.938Z,91.80
2018-08-19T23:07:51.836Z,91.90
2018-08-19T23:10:19.731Z,92.10
2018-08-19T23:12:47.530Z,92.60
2018-08-19T23:15:26.453Z,92.70
2018-08-19T23:17:54.171Z,92.60
2018-08-19T23:20:21.863Z,91.60
2018-08-19T23:22:49.534Z,92.30
2018-08-19T23:25:17.311Z,91.00
2018-08-19T23:27:45.092Z,91.60
2018-08-19T23:30:12.959Z,92.00
2018-08-19T23:32:40.759Z,92.30
2018-08-19T23:35:08.453Z,92.20
2018-08-19T23:37:36.257Z,92.10
2018-08-19T23:40:03.988Z,91.90
2018-08-19T23:42:31.782Z,91.60
2018-08-19T23:44:59.516Z,91.70
2018-08-19T23:47:27.271Z,92.00
2018-08-19T23:49:55.055Z,92.20
2018-08-19T23:52:22.738Z,91.90
2018-08-19T23:54:50.339Z,91.90
2018-08-19T23:57:18.046Z,92.30
2018-08-19T23:59:45.879Z,92.40
